createdAt,value
2018-09-05T00:00:57.024Z,20.00
2018-09-05T00:03:25.929Z,20.00
2018-09-05T00:05:54.806Z,20.00
2018-09-05T00:08:23.728Z,20.00
2018-09-05T00:10:52.674Z,20.00
2018-09-05T00:13:21.566Z,20.00
2018-09-05T00:15:50.407Z,20.00
2018-09-05T00:18:19.288Z,20.00
2018-09-05T00:20:48.127Z,20.00
2018-09-05T00:23:17.086Z,19.90
2018-09-05T00:25:45.901Z,19.90
2018-09-05T00:28:14.842Z,19.90
2018-09-05T00:30:43.785Z,19.90
2018-09-05T00:33:12.682Z,19.90
2018-09-05T00:35:41.624Z,19.80
2018-09-05T00:38:10.484Z,19.80
2018-09-05T00:40:39.365Z,19.80
2018-09-05T00:43:08.318Z,19.80
2018-09-05T00:45:37.236Z,19.80
2018-09-05T00:48:06.136Z,19.80
2018-09-05T00:50:35.016Z,19.80
2018-09-05T00:53:04.027Z,19.80
2018-09-05T00:55:32.932Z,19.80
2018-09-05T00:58:01.823Z,19.80
2018-09-05T01:00:30.742Z,19.70
2018-09-05T01:02:59.826Z,19.70
2018-09-05T01:05:28.620Z,19.70
2018-09-05T01:07:57.516Z,19.70
2018-09-05T01:10:26.317Z,19.70
2018-09-05T01:12:55.160Z,19.70
2018-09-05T01:15:24.054Z,19.70
2018-09-05T01:17:52.860Z,19.70
2018-09-05T01:20:21.681Z,19.60
2018-09-05T01:22:50.500Z,19.60
2018-09-05T01:25:19.308Z,19.60
2018-09-05T01:27:48.167Z,19.60
2018-09-05T01:30:17.027Z,19.60
2018-09-05T01:32:46.316Z,19.50
2018-09-05T01:35:15.131Z,19.50
2018-09-05T01:37:44.021Z,19.50
2018-09-05T01:40:12.856Z,19.50
2018-09-05T01:42:41.733Z,19.50
2018-09-05T01:45:10.576Z,19.40
2018-09-05T01:47:39.419Z,19.40
2018-09-05T01:50:08.260Z,19.40
2018-09-05T01:52:37.088Z,19.40
2018-09-05T01:55:05.983Z,19.30
2018-09-05T01:57:34.851Z,19.30
2018-09-05T02:00:03.796Z,19.30
2018-09-05T02:02:32.669Z,19.30
2018-09-05T02:05:01.573Z,19.30
2018-09-05T02:07:30.436Z,19.30
2018-09-05T02:09:59.241Z,19.30
2018-09-05T02:12:28.040Z,19.30
2018-09-05T02:14:56.972Z,19.30
2018-09-05T02:17:25.836Z,19.30
2018-09-05T02:19:54.764Z,19.20
2018-09-05T02:22:23.566Z,19.20
2018-09-05T02:24:52.430Z,19.20
2018-09-05T02:27:21.265Z,19.10
2018-09-05T02:29:50.173Z,19.10
2018-09-05T02:32:19.000Z,19.10
2018-09-05T02:34:47.866Z,19.00
2018-09-05T02:37:16.676Z,19.00
2018-09-05T02:39:45.589Z,18.90
2018-09-05T02:42:14.409Z,18.90
2018-09-05T02:44:43.252Z,18.80
2018-09-05T02:47:12.065Z,18.80
2018-09-05T02:49:40.926Z,18.80
2018-09-05T02:52:09.727Z,18.80
2018-09-05T02:54:38.634Z,18.70
2018-09-05T02:57:07.393Z,18.70
2018-09-05T02:59:36.345Z,18.70
2018-09-05T03:02:05.124Z,18.70
2018-09-05T03:04:33.995Z,18.70
2018-09-05T03:07:02.839Z,18.70
2018-09-05T03:09:31.796Z,18.70
2018-09-05T03:12:00.591Z,18.70
2018-09-05T03:14:29.460Z,18.70
2018-09-05T03:16:58.250Z,18.70
2018-09-05T03:19:27.121Z,18.60
2018-09-05T03:21:56.025Z,18.60
2018-09-05T03:24:24.975Z,18.60
2018-09-05T03:26:53.801Z,18.60
2018-09-05T03:29:22.681Z,18.60
2018-09-05T03:31:51.760Z,18.60
2018-09-05T03:34:20.600Z,18.50
2018-09-05T03:36:49.461Z,18.50
2018-09-05T03:39:18.347Z,18.50
2018-09-05T03:41:47.157Z,18.50
2018-09-05T03:44:15.997Z,18.40
2018-09-05T03:46:44.836Z,18.40
2018-09-05T03:49:13.711Z,18.40
2018-09-05T03:51:42.553Z,18.40
2018-09-05T03:54:11.406Z,18.50
2018-09-05T03:56:40.251Z,18.40
2018-09-05T03:59:09.070Z,18.40
2018-09-05T04:01:37.892Z,18.40
2018-09-05T04:04:06.700Z,18.40
2018-09-05T04:06:35.517Z,18.30
2018-09-05T04:09:06.117Z,18.30
2018-09-05T04:11:34.973Z,18.30
2018-09-05T04:14:03.877Z,18.20
2018-09-05T04:16:32.721Z,18.20
2018-09-05T04:19:01.646Z,18.20
2018-09-05T04:21:30.477Z,18.20
2018-09-05T04:23:59.279Z,18.20
2018-09-05T04:26:28.183Z,18.20
2018-09-05T04:28:57.077Z,18.10
2018-09-05T04:31:26.000Z,18.10
2018-09-05T04:33:54.831Z,18.10
2018-09-05T04:36:23.755Z,18.10
2018-09-05T04:38:52.636Z,18.10
2018-09-05T04:41:21.462Z,18.10
2018-09-05T04:43:50.288Z,18.10
2018-09-05T04:46:19.117Z,18.10
2018-09-05T04:48:47.945Z,18.10
2018-09-05T04:51:16.787Z,18.10
2018-09-05T04:53:45.538Z,18.00
2018-09-05T04:56:14.403Z,18.00
2018-09-05T04:58:43.199Z,18.00
2018-09-05T05:01:12.097Z,18.10
2018-09-05T05:03:40.916Z,18.10
2018-09-05T05:06:09.897Z,18.10
2018-09-05T05:08:38.752Z,18.10
2018-09-05T05:11:07.595Z,18.10
2018-09-05T05:13:36.439Z,18.10
2018-09-05T05:16:05.594Z,18.10
2018-09-05T05:18:34.435Z,18.10
2018-09-05T05:21:03.298Z,18.10
2018-09-05T05:23:32.141Z,18.10
2018-09-05T05:26:01.040Z,18.10
2018-09-05T05:28:29.894Z,18.10
2018-09-05T05:30:58.838Z,18.10
2018-09-05T05:33:27.681Z,18.20
2018-09-05T05:35:56.520Z,18.10
2018-09-05T05:38:25.456Z,18.10
2018-09-05T05:40:54.411Z,18.10
2018-09-05T05:43:23.213Z,18.10
2018-09-05T05:45:52.147Z,18.10
2018-09-05T05:48:21.057Z,18.20
2018-09-05T05:50:50.705Z,18.20
2018-09-05T05:53:19.586Z,18.20
2018-09-05T05:55:48.491Z,18.30
2018-09-05T05:58:17.374Z,18.40
2018-09-05T06:00:46.302Z,18.40
2018-09-05T06:03:15.106Z,18.50
2018-09-05T06:05:44.058Z,18.60
2018-09-05T06:08:12.935Z,18.60
2018-09-05T06:10:41.932Z,18.60
2018-09-05T06:13:10.804Z,18.70
2018-09-05T06:15:40.086Z,18.70
2018-09-05T06:18:08.873Z,18.80
2018-09-05T06:20:37.917Z,18.80
2018-09-05T06:23:06.800Z,18.90
2018-09-05T06:25:35.746Z,18.90
2018-09-05T06:28:04.722Z,19.00
2018-09-05T06:30:33.727Z,19.10
2018-09-05T06:33:02.564Z,19.10
2018-09-05T06:35:31.472Z,19.30
2018-09-05T06:38:00.449Z,19.30
2018-09-05T06:40:29.355Z,19.30
2018-09-05T06:42:58.338Z,19.40
2018-09-05T06:45:27.245Z,19.50
2018-09-05T06:47:56.099Z,19.50
2018-09-05T06:50:24.940Z,19.60
2018-09-05T06:52:53.886Z,19.70
2018-09-05T06:55:22.928Z,19.80
2018-09-05T06:57:51.981Z,19.90
2018-09-05T07:00:20.995Z,20.00
2018-09-05T07:02:49.935Z,20.20
2018-09-05T07:05:19.543Z,20.30
2018-09-05T07:07:48.534Z,20.40
2018-09-05T07:10:17.413Z,20.50
2018-09-05T07:12:46.331Z,20.60
2018-09-05T07:15:15.214Z,20.60
2018-09-05T07:17:44.175Z,20.70
2018-09-05T07:20:13.010Z,20.80
2018-09-05T07:22:41.894Z,20.80
2018-09-05T07:25:10.810Z,20.90
2018-09-05T07:27:39.680Z,21.00
2018-09-05T07:30:08.664Z,21.00
2018-09-05T07:32:37.620Z,21.00
2018-09-05T07:35:06.456Z,21.00
2018-09-05T07:37:35.425Z,21.10
2018-09-05T07:40:04.401Z,21.10
2018-09-05T07:42:36.286Z,21.20
2018-09-05T07:48:12.074Z,21.30
2018-09-05T07:50:45.009Z,21.40
2018-09-05T07:53:16.547Z,21.40
2018-09-05T07:55:47.959Z,21.40
2018-09-05T08:01:15.550Z,21.60
2018-09-05T08:03:50.075Z,21.70
2018-09-05T08:06:22.045Z,21.80
2018-09-05T08:08:52.918Z,21.90
2018-09-05T08:11:24.626Z,22.10
2018-09-05T08:13:55.572Z,22.10
2018-09-05T08:16:27.307Z,22.20
2018-09-05T08:19:00.309Z,22.30
2018-09-05T08:21:31.810Z,22.50
2018-09-05T08:24:04.273Z,22.70
2018-09-05T08:27:08.540Z,22.70
2018-09-05T08:29:59.777Z,22.80
2018-09-05T08:32:30.943Z,23.00
2018-09-05T08:35:02.418Z,23.10
2018-09-05T08:40:45.658Z,23.40
2018-09-05T08:43:17.489Z,23.60
2018-09-05T08:45:53.813Z,23.80
2018-09-05T08:49:06.738Z,24.00
2018-09-05T08:51:35.802Z,24.20
2018-09-05T08:54:04.865Z,24.20
2018-09-05T08:56:33.989Z,24.30
2018-09-05T08:59:03.019Z,24.50
2018-09-05T09:01:32.197Z,24.60
2018-09-05T09:04:01.399Z,24.60
2018-09-05T09:06:30.507Z,24.70
2018-09-05T09:08:59.574Z,24.90
2018-09-05T09:11:29.033Z,25.00
2018-09-05T09:13:58.099Z,25.00
2018-09-05T09:16:27.018Z,25.20
2018-09-05T09:18:55.984Z,25.30
2018-09-05T09:21:24.894Z,25.20
2018-09-05T09:23:53.966Z,25.20
2018-09-05T09:26:23.228Z,25.20
2018-09-05T09:28:53.048Z,25.30
2018-09-05T09:31:22.566Z,25.20
2018-09-05T09:33:52.049Z,25.20
2018-09-05T09:36:21.359Z,25.20
2018-09-05T09:38:50.383Z,25.50
2018-09-05T09:41:19.709Z,25.70
2018-09-05T09:43:48.802Z,25.80
2018-09-05T09:46:17.834Z,25.80
2018-09-05T09:48:46.934Z,25.70
2018-09-05T09:51:15.932Z,25.70
2018-09-05T09:53:46.024Z,25.80
2018-09-05T09:56:15.288Z,25.70
2018-09-05T09:58:44.301Z,25.70
2018-09-05T10:01:18.796Z,25.80
2018-09-05T10:03:52.909Z,26.20
2018-09-05T10:06:26.061Z,26.20
2018-09-05T10:09:00.676Z,26.20
2018-09-05T10:11:34.700Z,26.30
2018-09-05T10:14:09.195Z,26.60
2018-09-05T10:16:41.085Z,26.50
2018-09-05T10:19:11.687Z,26.30
2018-09-05T10:21:40.700Z,26.50
2018-09-05T10:24:09.755Z,26.50
2018-09-05T10:26:38.671Z,26.70
2018-09-05T10:29:07.855Z,26.80
2018-09-05T10:31:36.923Z,26.70
2018-09-05T10:34:06.807Z,26.70
2018-09-05T10:36:35.770Z,26.50
2018-09-05T10:39:06.930Z,26.80
2018-09-05T10:41:36.086Z,26.90
2018-09-05T10:44:04.992Z,27.60
2018-09-05T10:46:34.080Z,27.80
2018-09-05T10:49:03.015Z,27.80
2018-09-05T10:51:37.257Z,27.90
2018-09-05T10:54:06.751Z,28.00
2018-09-05T10:56:35.992Z,28.50
2018-09-05T10:59:05.173Z,28.50
2018-09-05T11:01:34.645Z,28.70
2018-09-05T11:04:04.039Z,29.10
2018-09-05T11:06:33.136Z,29.50
2018-09-05T11:09:02.344Z,29.20
2018-09-05T11:11:31.760Z,29.20
2018-09-05T11:14:00.788Z,29.60
2018-09-05T11:16:30.550Z,29.40
2018-09-05T11:19:05.869Z,29.60
2018-09-05T11:21:34.955Z,29.30
2018-09-05T11:24:03.959Z,29.80
2018-09-05T11:26:33.090Z,29.70
2018-09-05T11:29:02.249Z,30.00
2018-09-05T11:31:31.633Z,30.20
2018-09-05T11:34:00.595Z,30.10
2018-09-05T11:36:30.137Z,30.00
2018-09-05T11:38:59.173Z,30.10
2018-09-05T11:41:28.267Z,29.70
2018-09-05T11:43:57.329Z,29.90
2018-09-05T11:46:26.542Z,30.90
2018-09-05T11:48:55.520Z,31.20
2018-09-05T11:51:24.778Z,31.30
2018-09-05T11:53:53.958Z,31.40
2018-09-05T11:56:23.125Z,30.50
2018-09-05T11:58:52.289Z,29.90
2018-09-05T12:01:21.482Z,30.50
2018-09-05T12:03:50.859Z,30.90
2018-09-05T12:06:20.119Z,31.70
2018-09-05T12:08:49.092Z,32.60
2018-09-05T12:11:18.215Z,32.60
2018-09-05T12:13:47.066Z,32.60
2018-09-05T12:16:16.535Z,33.30
2018-09-05T12:18:45.747Z,34.30
2018-09-05T12:21:14.892Z,34.50
2018-09-05T12:23:43.971Z,34.30
2018-09-05T12:26:13.420Z,34.10
2018-09-05T12:28:43.057Z,34.00
2018-09-05T12:31:12.349Z,33.80
2018-09-05T12:33:41.371Z,33.40
2018-09-05T12:36:10.795Z,32.90
2018-09-05T12:38:39.790Z,33.50
2018-09-05T12:41:08.793Z,33.50
2018-09-05T12:43:37.786Z,33.60
2018-09-05T12:46:07.002Z,33.20
2018-09-05T12:48:36.318Z,33.10
2018-09-05T12:51:05.409Z,32.50
2018-09-05T12:53:34.446Z,32.10
2018-09-05T12:56:03.410Z,31.80
2018-09-05T12:58:32.649Z,31.60
2018-09-05T13:01:01.815Z,31.30
2018-09-05T13:03:31.017Z,31.10
2018-09-05T13:05:59.894Z,30.90
2018-09-05T13:08:28.961Z,30.60
2018-09-05T13:10:57.989Z,30.90
2018-09-05T13:13:27.003Z,31.20
2018-09-05T13:15:56.078Z,31.40
2018-09-05T13:18:25.248Z,31.30
2018-09-05T13:20:54.295Z,31.00
2018-09-05T13:23:23.467Z,31.20
2018-09-05T13:25:52.520Z,32.00
2018-09-05T13:28:21.710Z,32.90
2018-09-05T13:30:50.616Z,33.90
2018-09-05T13:33:20.068Z,35.20
2018-09-05T13:35:49.217Z,36.00
2018-09-05T13:38:18.406Z,35.90
2018-09-05T13:40:47.325Z,35.80
2018-09-05T13:43:21.196Z,34.80
2018-09-05T13:45:54.010Z,35.00
2018-09-05T13:48:23.123Z,35.80
2018-09-05T13:50:52.097Z,36.60
2018-09-05T13:53:21.196Z,37.80
2018-09-05T13:55:50.394Z,37.50
2018-09-05T13:58:19.607Z,37.10
2018-09-05T14:00:48.623Z,35.80
2018-09-05T14:03:20.520Z,34.90
2018-09-05T14:05:49.509Z,33.80
2018-09-05T14:08:20.788Z,33.10
2018-09-05T14:10:52.404Z,33.00
2018-09-05T14:13:21.378Z,34.10
2018-09-05T14:15:56.995Z,35.60
2018-09-05T14:18:27.965Z,37.20
2018-09-05T14:20:59.064Z,37.60
2018-09-05T14:23:28.157Z,38.40
2018-09-05T14:25:57.123Z,39.30
2018-09-05T14:28:26.210Z,39.90
2018-09-05T14:30:55.528Z,40.20
2018-09-05T14:33:24.480Z,40.20
2018-09-05T14:35:53.813Z,40.30
2018-09-05T14:38:22.781Z,40.10
2018-09-05T14:40:51.892Z,40.30
2018-09-05T14:43:20.862Z,40.50
2018-09-05T14:45:49.897Z,40.00
2018-09-05T14:48:24.130Z,39.20
2018-09-05T14:50:54.489Z,38.70
2018-09-05T14:53:25.487Z,38.50
2018-09-05T14:55:58.266Z,38.00
2018-09-05T14:58:29.596Z,37.00
2018-09-05T15:01:05.380Z,36.20
2018-09-05T15:06:13.029Z,35.10
2018-09-05T15:08:42.426Z,34.20
2018-09-05T15:11:11.419Z,33.70
2018-09-05T15:13:42.574Z,33.20
2018-09-05T15:16:11.708Z,32.60
2018-09-05T15:18:40.691Z,32.00
2018-09-05T15:21:09.769Z,31.70
2018-09-05T15:23:38.660Z,31.50
2018-09-05T15:26:07.979Z,31.20
2018-09-05T15:28:37.321Z,31.20
2018-09-05T15:31:06.566Z,32.10
2018-09-05T15:33:35.500Z,33.50
2018-09-05T15:36:04.825Z,35.00
2018-09-05T15:38:34.047Z,36.20
2018-09-05T15:41:03.152Z,36.90
2018-09-05T15:43:32.315Z,37.50
2018-09-05T15:46:01.390Z,37.30
2018-09-05T15:48:30.228Z,36.80
2018-09-05T15:50:59.388Z,36.40
2018-09-05T15:53:28.499Z,36.50
2018-09-05T15:55:57.412Z,35.90
2018-09-05T15:58:26.462Z,35.20
2018-09-05T16:00:55.348Z,34.30
2018-09-05T16:03:25.132Z,33.60
2018-09-05T16:05:54.092Z,32.90
2018-09-05T16:08:23.032Z,32.40
2018-09-05T16:10:52.021Z,32.20
2018-09-05T16:13:20.971Z,31.90
2018-09-05T16:15:49.842Z,31.50
2018-09-05T16:18:18.833Z,31.10
2018-09-05T16:20:47.958Z,30.80
2018-09-05T16:23:17.014Z,30.50
2018-09-05T16:25:45.853Z,30.30
2018-09-05T16:28:14.771Z,30.10
2018-09-05T16:30:43.960Z,30.00
2018-09-05T16:33:13.156Z,29.70
2018-09-05T16:35:42.063Z,29.50
2018-09-05T16:38:10.976Z,29.30
2018-09-05T16:40:39.848Z,29.20
2018-09-05T16:43:09.293Z,29.00
2018-09-05T16:45:38.318Z,28.90
2018-09-05T16:48:07.610Z,28.90
2018-09-05T16:50:36.493Z,28.80
2018-09-05T16:53:05.693Z,28.80
2018-09-05T16:55:34.641Z,28.70
2018-09-05T16:58:04.419Z,28.50
2018-09-05T17:00:33.388Z,28.40
2018-09-05T17:03:02.312Z,28.40
2018-09-05T17:05:31.199Z,28.20
2018-09-05T17:08:00.100Z,28.00
2018-09-05T17:10:29.268Z,28.00
2018-09-05T17:12:58.441Z,27.80
2018-09-05T17:15:27.309Z,27.80
2018-09-05T17:17:56.171Z,27.60
2018-09-05T17:20:24.986Z,27.40
2018-09-05T17:22:54.069Z,27.30
2018-09-05T17:25:22.991Z,27.10
2018-09-05T17:27:52.083Z,26.90
2018-09-05T17:30:23.001Z,26.80
2018-09-05T17:32:52.172Z,26.70
2018-09-05T17:35:21.259Z,26.50
2018-09-05T17:37:50.216Z,26.40
2018-09-05T17:40:19.510Z,26.20
2018-09-05T17:42:48.370Z,26.10
2018-09-05T17:45:17.249Z,26.00
2018-09-05T17:47:46.055Z,25.90
2018-09-05T17:50:15.141Z,25.80
2018-09-05T17:52:44.162Z,25.80
2018-09-05T17:55:13.088Z,25.70
2018-09-05T17:57:41.945Z,25.60
2018-09-05T18:00:10.914Z,25.50
2018-09-05T18:02:39.847Z,25.50
2018-09-05T18:05:08.783Z,25.40
2018-09-05T18:07:38.744Z,25.30
2018-09-05T18:10:07.589Z,25.20
2018-09-05T18:12:36.572Z,25.10
2018-09-05T18:15:05.895Z,25.00
2018-09-05T18:17:34.789Z,24.90
2018-09-05T18:20:03.660Z,24.80
2018-09-05T18:22:32.414Z,24.80
2018-09-05T18:25:01.312Z,24.70
2018-09-05T18:27:30.263Z,24.70
2018-09-05T18:29:59.120Z,24.60
2018-09-05T18:32:28.109Z,24.60
2018-09-05T18:34:56.995Z,24.50
2018-09-05T18:37:25.897Z,24.40
2018-09-05T18:39:54.998Z,24.30
2018-09-05T18:42:24.052Z,24.30
2018-09-05T18:44:53.173Z,24.20
2018-09-05T18:47:22.385Z,24.20
2018-09-05T18:49:52.365Z,24.20
2018-09-05T18:52:21.244Z,24.10
2018-09-05T18:54:50.437Z,24.10
2018-09-05T18:57:19.441Z,24.00
2018-09-05T18:59:48.319Z,24.00
2018-09-05T19:02:17.241Z,24.00
2018-09-05T19:04:46.180Z,23.90
2018-09-05T19:07:15.044Z,23.90
2018-09-05T19:09:44.083Z,23.90
2018-09-05T19:12:12.939Z,23.80
2018-09-05T19:14:42.071Z,23.80
2018-09-05T19:17:11.072Z,23.80
2018-09-05T19:19:39.971Z,23.70
2018-09-05T19:22:08.906Z,23.70
2018-09-05T19:24:37.758Z,23.70
2018-09-05T19:27:06.673Z,23.60
2018-09-05T19:29:35.512Z,23.60
2018-09-05T19:32:04.534Z,23.50
2018-09-05T19:34:33.396Z,23.50
2018-09-05T19:37:02.547Z,23.50
2018-09-05T19:39:31.578Z,23.40
2018-09-05T19:42:00.741Z,23.40
2018-09-05T19:44:29.740Z,23.40
2018-09-05T19:46:58.595Z,23.40
2018-09-05T19:49:27.415Z,23.30
2018-09-05T19:51:56.289Z,23.30
2018-09-05T19:54:25.547Z,23.20
2018-09-05T19:56:54.681Z,23.20
2018-09-05T19:59:23.611Z,23.10
2018-09-05T20:01:52.409Z,23.10
2018-09-05T20:04:21.236Z,23.00
2018-09-05T20:06:50.180Z,23.00
2018-09-05T20:09:19.077Z,23.00
2018-09-05T20:11:47.986Z,22.90
2018-09-05T20:14:16.814Z,22.90
2018-09-05T20:16:46.576Z,22.90
2018-09-05T20:19:15.671Z,22.90
2018-09-05T20:21:44.538Z,22.90
2018-09-05T20:24:13.325Z,22.80
2018-09-05T20:26:42.200Z,22.70
2018-09-05T20:29:11.198Z,22.60
2018-09-05T20:31:40.532Z,22.50
2018-09-05T20:34:09.388Z,22.40
2018-09-05T20:36:38.190Z,22.30
2018-09-05T20:39:09.255Z,22.20
2018-09-05T20:41:38.149Z,22.20
2018-09-05T20:44:07.018Z,22.10
2018-09-05T20:46:35.901Z,22.10
2018-09-05T20:49:04.716Z,22.00
2018-09-05T20:51:33.658Z,22.00
2018-09-05T20:54:02.492Z,22.00
2018-09-05T20:56:31.349Z,22.00
2018-09-05T20:59:00.321Z,22.00
2018-09-05T21:01:29.298Z,21.90
2018-09-05T21:03:58.358Z,21.90
2018-09-05T21:06:27.304Z,21.90
2018-09-05T21:08:56.125Z,21.90
2018-09-05T21:11:25.033Z,21.80
2018-09-05T21:13:53.879Z,21.80
2018-09-05T21:16:22.896Z,21.70
2018-09-05T21:18:51.733Z,21.60
2018-09-05T21:21:20.633Z,21.50
2018-09-05T21:23:49.481Z,21.40
2018-09-05T21:26:18.335Z,21.40
2018-09-05T21:28:47.192Z,21.30
2018-09-05T21:31:16.071Z,21.20
2018-09-05T21:33:44.936Z,21.20
2018-09-05T21:36:13.825Z,21.20
2018-09-05T21:38:42.685Z,21.20
2018-09-05T21:41:11.682Z,21.10
2018-09-05T21:43:40.551Z,21.20
2018-09-05T21:46:09.460Z,21.10
2018-09-05T21:48:38.448Z,21.20
2018-09-05T21:51:07.392Z,21.10
2018-09-05T21:53:36.293Z,21.10
2018-09-05T21:56:05.361Z,21.10
2018-09-05T21:58:34.237Z,21.10
2018-09-05T22:01:03.108Z,21.20
2018-09-05T22:03:31.973Z,21.10
2018-09-05T22:06:01.036Z,21.10
2018-09-05T22:08:30.010Z,21.10
2018-09-05T22:11:03.173Z,21.10
2018-09-05T22:13:32.311Z,21.10
2018-09-05T22:16:01.281Z,21.10
2018-09-05T22:18:30.178Z,21.10
2018-09-05T22:20:59.037Z,21.00
2018-09-05T22:23:27.918Z,21.00
2018-09-05T22:25:56.738Z,21.00
2018-09-05T22:28:25.578Z,21.00
2018-09-05T22:30:54.440Z,20.90
2018-09-05T22:33:23.311Z,20.90
2018-09-05T22:35:52.109Z,20.90
2018-09-05T22:38:20.968Z,20.80
2018-09-05T22:40:52.860Z,20.80
2018-09-05T22:43:33.477Z,20.80
2018-09-05T22:46:13.488Z,20.80
2018-09-05T22:48:53.413Z,20.70
2018-09-05T22:54:12.096Z,20.70
2018-09-05T22:56:58.229Z,20.70
2018-09-05T23:02:10.267Z,20.60
2018-09-05T23:04:52.214Z,20.60
2018-09-05T23:08:37.155Z,20.60
2018-09-05T23:11:17.271Z,20.50
2018-09-05T23:15:05.510Z,20.50
2018-09-05T23:18:45.558Z,20.50
2018-09-05T23:21:18.827Z,20.50
2018-09-05T23:23:57.691Z,20.40
2018-09-05T23:26:26.953Z,20.40
2018-09-05T23:28:55.803Z,20.40
2018-09-05T23:31:24.972Z,20.30
2018-09-05T23:33:53.887Z,20.30
2018-09-05T23:36:23.010Z,20.30
2018-09-05T23:38:51.857Z,20.30
2018-09-05T23:41:20.687Z,20.20
2018-09-05T23:43:49.568Z,20.20
2018-09-05T23:46:18.407Z,20.20
2018-09-05T23:48:47.291Z,20.20
2018-09-05T23:51:16.108Z,20.20
2018-09-05T23:53:44.987Z,20.10
2018-09-05T23:56:13.820Z,20.10
2018-09-05T23:58:42.662Z,20.00
